Time;durP1;ratioP1;P1;durP2;ratioP2;P2;SDS_P1;SDS_P2;PMS_P1;PMS_P2;Temp;Humidity;BMP_temperature;BMP_pressure;BME280_temperature;BME280_humidity;BME280_pressure;Samples;Min_cycle;Max_cycle;Signal;HPM_P1;HPM_P2
2023/08/16 00:02:03;;;;;;;0.10;0.10;;;16.10;99.90;;;;;;5058329;28;20218;-79
2023/08/16 00:04:29;;;;;;;0.10;0.10;;;15.90;99.90;;;;;;5051755;28;20281;-79
2023/08/16 00:06:54;;;;;;;0.10;0.10;;;15.90;99.90;;;;;;5045318;28;20948;-79
2023/08/16 00:09:21;;;;;;;0.10;0.10;;;15.90;99.90;;;;;;5047447;28;20252;-79
2023/08/16 00:11:47;;;;;;;0.10;0.10;;;15.90;99.90;;;;;;5051527;28;20191;-79
2023/08/16 00:14:12;;;;;;;0.10;0.10;;;15.80;99.90;;;;;;5050234;28;20472;-79
2023/08/16 00:16:38;;;;;;;0.10;0.10;;;15.80;99.90;;;;;;5053859;28;20484;-79
2023/08/16 00:19:03;;;;;;;0.10;0.10;;;15.80;99.90;;;;;;5031257;28;20226;-79
2023/08/16 00:21:29;;;;;;;0.10;0.10;;;15.80;99.90;;;;;;5048628;28;20183;-79
2023/08/16 00:23:55;;;;;;;0.10;0.10;;;15.80;99.90;;;;;;5047486;28;20198;-79
2023/08/16 00:26:20;;;;;;;0.10;0.10;;;16.00;99.90;;;;;;5051794;28;20534;-79
2023/08/16 00:28:48;;;;;;;0.10;0.10;;;16.00;99.90;;;;;;5052311;28;20202;-80
2023/08/16 00:31:14;;;;;;;0.10;0.10;;;16.20;99.90;;;;;;5053805;28;20632;-79
2023/08/16 00:33:39;;;;;;;0.10;0.10;;;16.10;99.90;;;;;;5049387;28;20575;-79
2023/08/16 00:36:06;;;;;;;0.10;0.10;;;16.00;99.90;;;;;;5049610;28;20536;-79
2023/08/16 00:38:32;;;;;;;0.10;0.10;;;16.10;99.90;;;;;;5050404;28;20938;-79
2023/08/16 00:40:57;;;;;;;0.10;0.10;;;16.00;99.90;;;;;;5049065;28;20473;-79
2023/08/16 00:43:23;;;;;;;0.10;0.10;;;15.90;99.90;;;;;;5051064;28;20190;-79
2023/08/16 00:45:49;;;;;;;0.10;0.10;;;15.80;99.90;;;;;;5054524;28;20206;-78
2023/08/16 00:48:15;;;;;;;0.10;0.10;;;15.90;99.90;;;;;;5051481;28;20595;-79
2023/08/16 00:50:41;;;;;;;0.10;0.10;;;15.80;99.90;;;;;;5039021;28;20470;-79
2023/08/16 00:53:08;;;;;;;0.10;0.10;;;15.70;99.90;;;;;;5057383;28;20524;-80
2023/08/16 00:55:33;;;;;;;0.10;0.10;;;15.80;99.90;;;;;;5051513;28;20460;-79
2023/08/16 00:57:59;;;;;;;0.10;0.10;;;15.90;99.90;;;;;;5049326;28;20466;-79
2023/08/16 01:00:26;;;;;;;0.10;0.10;;;15.80;99.90;;;;;;5043442;28;20183;-79
2023/08/16 01:02:52;;;;;;;0.10;0.10;;;16.00;99.90;;;;;;5046809;28;20182;-79
2023/08/16 01:05:18;;;;;;;0.10;0.10;;;16.00;99.90;;;;;;5046415;28;20440;-79
2023/08/16 01:07:45;;;;;;;0.10;0.10;;;16.00;99.90;;;;;;5048586;28;20186;-79
2023/08/16 01:10:11;;;;;;;0.10;0.10;;;15.80;99.90;;;;;;5049119;28;20594;-78
2023/08/16 01:13:14;;;;;;;0.10;0.10;;;15.70;99.90;;;;;;5048863;28;20452;-79
2023/08/16 01:15:44;;;;;;;0.10;0.10;;;15.50;99.90;;;;;;5019173;28;20209;-79
2023/08/16 01:18:10;;;;;;;0.10;0.10;;;15.40;99.90;;;;;;5049413;28;20469;-79
2023/08/16 01:20:37;;;;;;;0.10;0.10;;;15.30;99.90;;;;;;5064857;28;20451;-79
2023/08/16 01:23:16;;;;;;;0.10;0.10;;;15.30;99.90;;;;;;5062724;28;20486;-79
2023/08/16 01:25:42;;;;;;;0.10;0.10;;;15.30;99.90;;;;;;5043447;28;20452;-79
2023/08/16 01:28:09;;;;;;;0.10;0.10;;;15.40;99.90;;;;;;5065882;28;20452;-79
2023/08/16 01:30:34;;;;;;;0.10;0.10;;;15.20;99.90;;;;;;5056250;28;20317;-79
2023/08/16 01:33:07;;;;;;;0.10;0.10;;;15.10;99.90;;;;;;5056352;28;20544;-79
2023/08/16 01:35:34;;;;;;;0.10;0.10;;;15.10;99.90;;;;;;5057520;28;20186;-79
2023/08/16 01:38:00;;;;;;;0.10;0.10;;;15.10;99.90;;;;;;5035955;28;20441;-79
2023/08/16 01:40:29;;;;;;;0.10;0.10;;;15.00;99.90;;;;;;5053094;28;20463;-79
2023/08/16 01:42:55;;;;;;;0.10;0.10;;;15.20;99.90;;;;;;5041794;28;20440;-78
2023/08/16 01:45:21;;;;;;;0.10;0.10;;;15.00;99.90;;;;;;5066455;28;20441;-79
2023/08/16 01:47:48;;;;;;;0.10;0.10;;;14.90;99.90;;;;;;5043738;28;20446;-79
2023/08/16 01:50:15;;;;;;;0.10;0.10;;;15.00;99.90;;;;;;5044126;28;20445;-79
2023/08/16 01:52:41;;;;;;;0.10;0.10;;;15.00;99.90;;;;;;5054938;28;20437;-78
2023/08/16 01:55:07;;;;;;;0.10;0.10;;;14.90;99.90;;;;;;5048852;28;20460;-79
2023/08/16 01:57:32;;;;;;;0.10;0.10;;;14.90;99.90;;;;;;5048030;28;20191;-79
2023/08/16 01:59:58;;;;;;;0.10;0.10;;;14.90;99.90;;;;;;5046609;28;20492;-79
2023/08/16 02:02:24;;;;;;;0.10;0.10;;;14.90;99.90;;;;;;5045932;28;20194;-79
2023/08/16 02:04:50;;;;;;;0.10;0.10;;;14.90;99.90;;;;;;5045779;28;20183;-78
2023/08/16 02:07:15;;;;;;;0.10;0.10;;;14.80;99.90;;;;;;5045845;28;20445;-78
2023/08/16 02:09:41;;;;;;;0.10;0.10;;;14.70;99.90;;;;;;5047863;28;20225;-78
2023/08/16 02:12:07;;;;;;;0.10;0.10;;;14.80;99.90;;;;;;5044727;28;21148;-79
2023/08/16 02:14:32;;;;;;;0.10;0.10;;;14.80;99.90;;;;;;5047500;28;20198;-79
2023/08/16 02:16:58;;;;;;;0.10;0.10;;;14.70;99.90;;;;;;5047608;28;20605;-79
2023/08/16 02:19:23;;;;;;;0.10;0.10;;;14.80;99.90;;;;;;5043085;28;20222;-78
2023/08/16 02:21:49;;;;;;;0.10;0.10;;;14.80;99.90;;;;;;5046788;28;20187;-78
2023/08/16 02:24:14;;;;;;;0.10;0.10;;;14.70;99.90;;;;;;5045449;28;20201;-78
2023/08/16 02:26:40;;;;;;;0.10;0.10;;;14.70;99.90;;;;;;5026751;28;20190;-78
2023/08/16 02:29:06;;;;;;;0.10;0.10;;;14.70;99.90;;;;;;5030920;28;20666;-78
2023/08/16 02:31:31;;;;;;;0.10;0.10;;;14.70;99.90;;;;;;5044185;28;20202;-78
2023/08/16 02:33:57;;;;;;;0.10;0.10;;;14.70;99.90;;;;;;5046036;28;20199;-78
2023/08/16 02:36:23;;;;;;;0.10;0.10;;;14.60;99.90;;;;;;5049838;28;20186;-79
2023/08/16 02:38:48;;;;;;;0.10;0.10;;;14.60;99.90;;;;;;5047854;28;20222;-78
2023/08/16 02:41:14;;;;;;;0.10;0.10;;;14.60;99.90;;;;;;5057051;28;20444;-78
2023/08/16 02:43:39;;;;;;;0.10;0.10;;;14.60;99.90;;;;;;5052738;28;20212;-79
2023/08/16 02:46:05;;;;;;;0.10;0.10;;;14.60;99.90;;;;;;5048954;28;20201;-79
2023/08/16 02:48:31;;;;;;;0.10;0.10;;;14.60;99.90;;;;;;5045719;28;20202;-79
2023/08/16 02:50:56;;;;;;;0.10;0.10;;;14.50;99.90;;;;;;5045540;28;20182;-79
2023/08/16 02:53:22;;;;;;;0.10;0.10;;;14.50;99.90;;;;;;5047524;28;20195;-78
2023/08/16 02:55:47;;;;;;;0.10;0.10;;;14.50;99.90;;;;;;5055301;28;20186;-78
2023/08/16 02:58:13;;;;;;;0.10;0.10;;;14.50;99.90;;;;;;5050020;28;20214;-78
2023/08/16 03:00:39;;;;;;;0.10;0.10;;;14.40;99.90;;;;;;5043224;28;20194;-79
2023/08/16 03:03:05;;;;;;;0.10;0.10;;;14.60;99.90;;;;;;5025070;28;20209;-78
2023/08/16 03:05:31;;;;;;;0.10;0.10;;;14.50;99.90;;;;;;5046698;28;20190;-78
2023/08/16 03:07:57;;;;;;;0.10;0.10;;;14.60;99.90;;;;;;5046470;28;20448;-79
2023/08/16 03:10:23;;;;;;;0.10;0.10;;;14.50;99.90;;;;;;5047902;28;20480;-79
2023/08/16 03:12:48;;;;;;;0.10;0.10;;;14.40;99.90;;;;;;5047910;28;20179;-79
2023/08/16 03:15:14;;;;;;;0.10;0.10;;;14.40;99.90;;;;;;5047330;28;20183;-78
2023/08/16 03:17:39;;;;;;;0.10;0.10;;;14.40;99.90;;;;;;5047973;28;20186;-79
2023/08/16 03:20:07;;;;;;;0.10;0.10;;;14.40;99.90;;;;;;5046994;28;20288;-79
2023/08/16 03:22:33;;;;;;;0.10;0.10;;;14.50;99.90;;;;;;5042764;28;20171;-78
2023/08/16 03:24:59;;;;;;;0.10;0.10;;;14.50;99.90;;;;;;5047473;28;20436;-79
2023/08/16 03:27:24;;;;;;;0.10;0.10;;;14.60;99.90;;;;;;5048223;28;20183;-78
2023/08/16 03:29:50;;;;;;;0.10;0.10;;;14.70;99.90;;;;;;5047355;28;20632;-79
2023/08/16 03:32:15;;;;;;;0.10;0.10;;;14.70;99.90;;;;;;5048720;28;20206;-78
2023/08/16 03:34:42;;;;;;;0.10;0.10;;;14.80;99.90;;;;;;5064818;28;20190;-78
2023/08/16 03:37:07;;;;;;;0.10;0.10;;;14.70;99.90;;;;;;5053936;28;20613;-78
2023/08/16 03:39:33;;;;;;;0.10;0.10;;;14.60;99.90;;;;;;5043637;28;21015;-78
2023/08/16 03:41:59;;;;;;;0.10;0.10;;;14.60;99.90;;;;;;5047856;28;20710;-78
2023/08/16 03:44:24;;;;;;;0.10;0.10;;;14.50;99.90;;;;;;5054340;28;20445;-79
2023/08/16 03:46:50;;;;;;;0.10;0.10;;;14.60;99.90;;;;;;5044086;28;20213;-78
2023/08/16 03:49:16;;;;;;;0.10;0.10;;;14.60;99.90;;;;;;5030660;28;20526;-78
2023/08/16 03:51:41;;;;;;;0.10;0.10;;;14.60;99.90;;;;;;5048998;28;20484;-78
2023/08/16 03:54:07;;;;;;;0.10;0.10;;;14.60;99.90;;;;;;5056135;28;20187;-79
2023/08/16 03:56:32;;;;;;;0.10;0.10;;;14.60;99.90;;;;;;5047820;28;20715;-79
2023/08/16 03:58:58;;;;;;;0.10;0.10;;;14.60;99.90;;;;;;5046941;28;20223;-78
2023/08/16 04:01:23;;;;;;;0.10;0.10;;;14.60;99.90;;;;;;5055299;28;20300;-78
2023/08/16 04:03:49;;;;;;;0.10;0.10;;;14.80;99.90;;;;;;5048971;28;20549;-79
2023/08/16 04:06:15;;;;;;;0.10;0.10;;;14.70;99.90;;;;;;5048296;28;20233;-78
2023/08/16 04:08:41;;;;;;;0.10;0.10;;;14.70;99.90;;;;;;5050727;28;20650;-78
2023/08/16 04:11:07;;;;;;;0.10;0.10;;;14.80;99.90;;;;;;5048050;28;20448;-79
2023/08/16 04:13:33;;;;;;;0.10;0.10;;;14.70;99.90;;;;;;5052836;28;20449;-79
2023/08/16 04:15:59;;;;;;;0.10;0.10;;;14.70;99.90;;;;;;5047067;28;20187;-79
2023/08/16 04:18:25;;;;;;;0.10;0.10;;;14.80;99.90;;;;;;5046103;28;20994;-78
2023/08/16 04:20:51;;;;;;;0.10;0.10;;;14.90;99.90;;;;;;5048831;28;20225;-78
2023/08/16 04:23:17;;;;;;;0.10;0.10;;;14.80;99.90;;;;;;5050360;28;20476;-78
2023/08/16 04:25:42;;;;;;;0.10;0.10;;;14.80;99.90;;;;;;5045863;28;20186;-79
2023/08/16 04:28:08;;;;;;;0.10;0.10;;;14.80;99.90;;;;;;5049996;28;20197;-78
2023/08/16 04:30:34;;;;;;;0.10;0.10;;;14.80;99.90;;;;;;5046381;28;20251;-78
2023/08/16 04:33:01;;;;;;;0.10;0.10;;;14.90;99.90;;;;;;5034785;28;20206;-78
2023/08/16 04:35:26;;;;;;;0.10;0.10;;;14.80;99.90;;;;;;5047559;28;20437;-79
2023/08/16 04:37:52;;;;;;;0.10;0.10;;;14.80;99.90;;;;;;5048405;28;20191;-79
2023/08/16 04:40:17;;;;;;;0.10;0.10;;;14.90;99.90;;;;;;5046893;28;20784;-79
2023/08/16 04:42:43;;;;;;;0.10;0.10;;;14.90;99.90;;;;;;5049392;28;20197;-79
2023/08/16 04:45:09;;;;;;;0.10;0.10;;;14.90;99.90;;;;;;5048563;28;20182;-79
2023/08/16 04:47:34;;;;;;;0.10;0.10;;;14.90;99.90;;;;;;5051885;28;20182;-79
2023/08/16 04:50:03;;;;;;;0.10;0.10;;;14.90;99.90;;;;;;5046535;28;20201;-78
2023/08/16 04:52:29;;;;;;;0.10;0.10;;;14.90;99.90;;;;;;5048877;28;20190;-79
2023/08/16 04:54:54;;;;;;;0.10;0.10;;;15.00;99.90;;;;;;5048382;28;20518;-79
2023/08/16 04:57:20;;;;;;;0.10;0.10;;;14.90;99.90;;;;;;5038618;28;20201;-78
2023/08/16 04:59:45;;;;;;;0.10;0.10;;;14.90;99.90;;;;;;5041104;28;20217;-79
2023/08/16 05:02:11;;;;;;;0.10;0.10;;;14.90;99.90;;;;;;5032254;28;21726;-78
2023/08/16 05:04:36;;;;;;;0.10;0.10;;;15.00;99.90;;;;;;5045766;28;20268;-79
2023/08/16 05:07:02;;;;;;;0.10;0.10;;;15.00;99.90;;;;;;5044929;28;20186;-79
2023/08/16 05:09:27;;;;;;;0.10;0.10;;;15.00;99.90;;;;;;5046913;28;20596;-79
2023/08/16 05:11:53;;;;;;;0.10;0.10;;;15.10;99.90;;;;;;5053529;28;20344;-79
2023/08/16 05:14:19;;;;;;;0.10;0.10;;;15.20;99.90;;;;;;5055548;28;20178;-80
2023/08/16 05:16:44;;;;;;;0.10;0.10;;;15.20;99.90;;;;;;5054880;28;20182;-79
2023/08/16 05:19:10;;;;;;;0.10;0.10;;;15.30;99.90;;;;;;5050798;28;20484;-79
2023/08/16 05:21:35;;;;;;;0.10;0.10;;;15.30;99.90;;;;;;5048225;28;20252;-79
2023/08/16 05:24:01;;;;;;;0.10;0.10;;;15.20;99.90;;;;;;5049991;28;20190;-79
2023/08/16 05:26:26;;;;;;;0.10;0.10;;;15.20;99.90;;;;;;5057510;28;20182;-79
2023/08/16 05:28:52;;;;;;;0.10;0.10;;;15.30;99.90;;;;;;5053689;28;20696;-79
2023/08/16 05:31:17;;;;;;;0.10;0.10;;;15.40;99.90;;;;;;5057347;28;20230;-78
2023/08/16 05:33:43;;;;;;;0.10;0.10;;;15.30;99.90;;;;;;5060496;28;20327;-78
2023/08/16 05:36:08;;;;;;;0.10;0.10;;;15.30;99.90;;;;;;5050936;28;20231;-78
2023/08/16 05:38:34;;;;;;;0.10;0.10;;;15.40;99.90;;;;;;5053034;28;20214;-79
2023/08/16 05:41:03;;;;;;;0.10;0.10;;;15.50;99.90;;;;;;5052559;28;20215;-79
2023/08/16 05:43:28;;;;;;;0.10;0.10;;;15.60;99.90;;;;;;5047434;28;20190;-79
2023/08/16 05:45:54;;;;;;;0.10;0.10;;;15.70;99.90;;;;;;5049213;28;20437;-78
2023/08/16 05:48:19;;;;;;;0.10;0.10;;;15.70;99.90;;;;;;5048147;28;20205;-79
2023/08/16 05:50:45;;;;;;;0.10;0.10;;;15.80;99.90;;;;;;5045349;28;20539;-79
2023/08/16 05:53:10;;;;;;;0.10;0.10;;;16.00;99.90;;;;;;5049620;28;20243;-79
2023/08/16 05:55:36;;;;;;;0.10;0.10;;;16.20;99.90;;;;;;5052329;28;20822;-80
2023/08/16 05:58:02;;;;;;;0.10;0.10;;;16.30;99.90;;;;;;5043641;28;20186;-79
2023/08/16 06:00:27;;;;;;;0.10;0.10;;;16.40;99.90;;;;;;5037697;28;20222;-80
2023/08/16 06:02:53;;;;;;;0.10;0.10;;;16.40;99.90;;;;;;5040763;28;20197;-80
2023/08/16 06:05:19;;;;;;;0.10;0.10;;;16.40;99.90;;;;;;5039623;28;20187;-80
2023/08/16 06:07:45;;;;;;;0.10;0.10;;;16.60;99.90;;;;;;5037258;28;20194;-80
2023/08/16 06:10:10;;;;;;;0.10;0.10;;;16.70;99.90;;;;;;5041345;28;20533;-80
2023/08/16 06:12:36;;;;;;;0.10;0.10;;;16.80;99.90;;;;;;5049049;28;20536;-80
2023/08/16 06:15:02;;;;;;;0.10;0.10;;;16.80;99.90;;;;;;5031448;28;20194;-80
2023/08/16 06:17:28;;;;;;;0.10;0.10;;;17.00;99.90;;;;;;5045598;28;20199;-79
2023/08/16 06:19:54;;;;;;;0.10;0.10;;;17.10;99.90;;;;;;5048026;28;20225;-80
2023/08/16 06:22:19;;;;;;;0.10;0.10;;;17.10;99.90;;;;;;5041448;28;20191;-79
2023/08/16 06:24:45;;;;;;;0.10;0.10;;;17.20;99.90;;;;;;5045387;28;20198;-80
2023/08/16 06:27:11;;;;;;;0.10;0.10;;;17.30;99.90;;;;;;5044795;28;20300;-81
2023/08/16 06:29:36;;;;;;;0.10;0.10;;;17.30;99.90;;;;;;5037714;28;20230;-81
2023/08/16 06:32:03;;;;;;;0.10;0.10;;;17.50;99.90;;;;;;5036863;28;20554;-82
2023/08/16 06:34:29;;;;;;;0.10;0.10;;;17.50;99.90;;;;;;5038023;28;20716;-80
2023/08/16 06:36:55;;;;;;;0.10;0.10;;;17.50;99.90;;;;;;5034998;28;20544;-81
2023/08/16 06:39:21;;;;;;;0.10;0.10;;;17.60;99.90;;;;;;5033221;28;20686;-80
2023/08/16 06:41:47;;;;;;;0.10;0.10;;;17.70;99.90;;;;;;5040109;28;20846;-80
2023/08/16 06:44:12;;;;;;;0.10;0.10;;;17.80;99.90;;;;;;5045774;28;20459;-79
2023/08/16 06:46:38;;;;;;;0.10;0.10;;;17.80;99.90;;;;;;5050489;28;20213;-79
2023/08/16 06:49:03;;;;;;;0.10;0.10;;;17.80;99.90;;;;;;5046055;28;20195;-80
2023/08/16 06:51:29;;;;;;;0.10;0.10;;;18.00;99.90;;;;;;5047832;28;20195;-80
2023/08/16 06:53:55;;;;;;;0.10;0.10;;;18.10;99.90;;;;;;5062223;28;20939;-80
2023/08/16 06:56:21;;;;;;;0.10;0.00;;;18.00;99.90;;;;;;5054862;28;20226;-79
2023/08/16 06:58:47;;;;;;;0.10;0.10;;;18.10;99.90;;;;;;5060317;28;20554;-80
2023/08/16 07:01:12;;;;;;;0.10;0.10;;;18.00;99.90;;;;;;5061173;28;20745;-80
2023/08/16 07:03:38;;;;;;;0.10;0.00;;;18.10;99.90;;;;;;5049863;28;20179;-79
2023/08/16 07:06:03;;;;;;;0.10;0.10;;;18.20;99.90;;;;;;5047180;28;20193;-80
2023/08/16 07:08:29;;;;;;;0.10;0.10;;;18.10;99.90;;;;;;5049550;28;20194;-80
2023/08/16 07:10:54;;;;;;;0.10;0.00;;;18.30;99.90;;;;;;5046367;28;20183;-80
2023/08/16 07:13:20;;;;;;;0.10;0.10;;;18.40;99.90;;;;;;5047782;28;20276;-80
2023/08/16 07:15:46;;;;;;;0.10;0.10;;;18.40;99.90;;;;;;5026893;28;20190;-80
2023/08/16 07:18:12;;;;;;;0.10;0.10;;;18.50;99.90;;;;;;5042845;28;20185;-81
2023/08/16 07:20:38;;;;;;;0.10;0.00;;;18.60;99.90;;;;;;5053600;28;20548;-80
2023/08/16 07:23:05;;;;;;;0.10;0.10;;;18.60;99.90;;;;;;5044967;28;20716;-79
2023/08/16 07:25:30;;;;;;;0.10;0.00;;;18.80;99.90;;;;;;5045732;28;20449;-78
2023/08/16 07:27:56;;;;;;;0.10;0.10;;;18.90;99.90;;;;;;5046799;28;20517;-79
2023/08/16 07:30:22;;;;;;;0.10;0.10;;;19.00;99.90;;;;;;5049001;28;20704;-79
2023/08/16 07:32:47;;;;;;;0.10;0.00;;;18.90;99.90;;;;;;5049051;28;20189;-79
2023/08/16 07:35:13;;;;;;;0.10;0.10;;;19.10;99.90;;;;;;5042366;28;20183;-80
2023/08/16 07:37:38;;;;;;;0.10;0.00;;;19.10;99.90;;;;;;5048803;28;20226;-80
2023/08/16 07:40:05;;;;;;;0.10;0.10;;;19.20;99.90;;;;;;5049269;28;20233;-79
2023/08/16 07:42:30;;;;;;;0.10;0.10;;;19.20;99.90;;;;;;5052538;28;20195;-79
2023/08/16 07:44:58;;;;;;;0.10;0.00;;;19.20;99.90;;;;;;5051781;28;20449;-76
2023/08/16 07:47:24;;;;;;;0.10;0.10;;;19.30;99.90;;;;;;5051696;28;20209;-77
2023/08/16 07:49:50;;;;;;;0.10;0.00;;;19.40;99.90;;;;;;5058225;28;20956;-79
2023/08/16 07:52:15;;;;;;;0.10;0.00;;;19.40;99.90;;;;;;5038252;28;20452;-79
2023/08/16 07:54:41;;;;;;;0.10;0.00;;;19.70;99.90;;;;;;5046808;28;20187;-79
2023/08/16 07:57:06;;;;;;;0.10;0.00;;;19.60;99.90;;;;;;5045419;28;20745;-77
2023/08/16 07:59:32;;;;;;;0.10;0.00;;;19.70;99.90;;;;;;5031954;28;20214;-78
2023/08/16 08:01:58;;;;;;;0.10;0.00;;;19.80;99.90;;;;;;5047676;28;20274;-79
2023/08/16 08:04:23;;;;;;;0.10;0.00;;;19.60;99.90;;;;;;5044921;28;20189;-78
2023/08/16 08:06:49;;;;;;;0.10;0.00;;;19.70;99.90;;;;;;5044545;28;20596;-78
2023/08/16 08:09:14;;;;;;;0.10;0.00;;;19.80;99.90;;;;;;5047205;28;20186;-85
2023/08/16 08:11:40;;;;;;;0.10;0.00;;;20.00;99.90;;;;;;5046216;28;20221;-83
2023/08/16 08:14:05;;;;;;;0.10;0.00;;;20.40;99.90;;;;;;5045698;28;20533;-85
2023/08/16 08:16:31;;;;;;;0.10;0.00;;;20.40;99.90;;;;;;5045393;28;20733;-81
2023/08/16 08:18:57;;;;;;;0.10;0.10;;;20.70;99.90;;;;;;5055536;28;20224;-79
2023/08/16 08:21:23;;;;;;;0.10;0.00;;;21.00;99.90;;;;;;5054738;28;20443;-78
2023/08/16 08:23:48;;;;;;;0.10;0.00;;;20.90;99.90;;;;;;5053285;28;20393;-79
2023/08/16 08:26:14;;;;;;;0.10;0.00;;;20.50;99.90;;;;;;5049964;28;20215;-79
2023/08/16 08:28:40;;;;;;;0.10;0.00;;;20.20;99.90;;;;;;5059889;28;20204;-79
2023/08/16 08:31:05;;;;;;;0.10;0.00;;;19.90;99.90;;;;;;5056193;28;20500;-81
2023/08/16 08:33:31;;;;;;;0.10;0.00;;;20.40;99.90;;;;;;5033574;28;20237;-80
2023/08/16 08:35:58;;;;;;;0.10;0.00;;;20.50;99.90;;;;;;5046196;28;20186;-80
2023/08/16 08:38:23;;;;;;;0.10;0.00;;;20.10;99.90;;;;;;5047065;28;20246;-80
2023/08/16 08:40:59;;;;;;;0.10;0.00;;;20.00;99.90;;;;;;5051010;28;20452;-80
2023/08/16 08:43:33;;;;;;;0.10;0.00;;;19.70;99.90;;;;;;5050096;28;20538;-81
2023/08/16 08:45:59;;;;;;;0.10;0.00;;;20.20;99.90;;;;;;5043919;28;20484;-80
2023/08/16 08:48:26;;;;;;;0.10;0.00;;;20.60;99.90;;;;;;5043953;28;21374;-80
2023/08/16 08:50:54;;;;;;;0.10;0.00;;;21.00;99.90;;;;;;5046671;28;20441;-80
2023/08/16 08:53:24;;;;;;;0.10;0.00;;;21.40;99.90;;;;;;5050435;28;20795;-80
2023/08/16 08:55:52;;;;;;;0.10;0.00;;;21.90;99.90;;;;;;5046197;28;20533;-79
2023/08/16 08:58:19;;;;;;;0.10;0.00;;;21.30;99.90;;;;;;5047109;28;20967;-79
2023/08/16 09:00:46;;;;;;;0.10;0.00;;;20.60;99.90;;;;;;5052819;28;20983;-80
2023/08/16 09:03:12;;;;;;;0.10;0.00;;;20.70;99.90;;;;;;5052611;28;20424;-79
2023/08/16 09:05:40;;;;;;;0.10;0.00;;;21.40;99.90;;;;;;5050915;28;20476;-79
2023/08/16 09:08:07;;;;;;;0.10;0.00;;;21.60;99.90;;;;;;5050611;28;20445;-78
2023/08/16 09:10:35;;;;;;;0.10;0.00;;;21.50;99.90;;;;;;5034147;28;20789;-79
2023/08/16 09:13:03;;;;;;;0.10;0.00;;;22.00;99.90;;;;;;5049436;28;20444;-79
2023/08/16 09:15:29;;;;;;;0.10;0.00;;;22.10;99.90;;;;;;5031507;28;20503;-79
2023/08/16 09:18:11;;;;;;;0.10;0.00;;;22.20;99.90;;;;;;5050965;28;20477;-79
2023/08/16 09:20:37;;;;;;;0.10;0.00;;;22.10;99.90;;;;;;5050938;28;20203;-78
2023/08/16 09:23:03;;;;;;;0.10;0.00;;;21.90;99.90;;;;;;5049394;28;20448;-77
2023/08/16 09:25:29;;;;;;;0.10;0.00;;;22.20;99.90;;;;;;5034502;28;20956;-78
2023/08/16 09:27:55;;;;;;;0.10;0.00;;;22.30;99.90;;;;;;5047210;28;20651;-80
2023/08/16 09:30:23;;;;;;;0.20;0.10;;;22.30;99.90;;;;;;5049259;28;20481;-79
2023/08/16 09:32:48;;;;;;;0.10;0.00;;;22.60;99.90;;;;;;5049372;28;20701;-80
2023/08/16 09:35:16;;;;;;;0.10;0.00;;;22.30;99.90;;;;;;5043586;28;20448;-80
2023/08/16 09:37:42;;;;;;;0.10;0.00;;;22.30;99.90;;;;;;5034028;28;20182;-80
2023/08/16 09:40:11;;;;;;;0.10;0.00;;;22.70;99.90;;;;;;5051442;28;20487;-80
2023/08/16 09:42:37;;;;;;;0.10;0.00;;;22.80;99.90;;;;;;5056857;28;20457;-79
2023/08/16 09:45:03;;;;;;;0.10;0.00;;;22.90;99.90;;;;;;5050599;28;20499;-80
2023/08/16 09:47:30;;;;;;;0.10;0.00;;;22.70;99.90;;;;;;5049538;28;20282;-80
2023/08/16 09:49:59;;;;;;;0.10;0.00;;;23.20;99.90;;;;;;5058819;28;21166;-80
2023/08/16 09:52:25;;;;;;;0.10;0.00;;;23.40;99.90;;;;;;5066696;28;20448;-80
2023/08/16 09:54:51;;;;;;;0.10;0.00;;;23.40;99.90;;;;;;5053235;28;21473;-80
2023/08/16 09:57:17;;;;;;;0.10;0.00;;;23.30;99.90;;;;;;5052812;28;20209;-80
2023/08/16 09:59:43;;;;;;;0.10;0.00;;;23.70;99.90;;;;;;5068666;28;20879;-80
2023/08/16 10:02:12;;;;;;;0.10;0.00;;;23.90;99.90;;;;;;5049919;28;20444;-80
2023/08/16 10:04:39;;;;;;;0.10;0.00;;;24.10;99.90;;;;;;5049033;28;20183;-80
2023/08/16 10:07:06;;;;;;;0.10;0.10;;;23.90;99.90;;;;;;5041315;28;21113;-79
2023/08/16 10:09:33;;;;;;;0.10;0.00;;;24.50;99.90;;;;;;5050649;28;20528;-80
2023/08/16 10:12:03;;;;;;;0.10;0.00;;;24.30;99.90;;;;;;5054682;28;20440;-80
2023/08/16 10:14:30;;;;;;;0.10;0.00;;;24.10;99.90;;;;;;5063115;28;20444;-78
2023/08/16 10:17:01;;;;;;;0.10;0.00;;;24.60;99.90;;;;;;5047399;28;20453;-80
2023/08/16 10:19:31;;;;;;;0.10;0.00;;;25.20;99.90;;;;;;5047667;28;20481;-79
2023/08/16 10:21:58;;;;;;;0.10;0.00;;;24.60;99.90;;;;;;5045467;28;20548;-81
2023/08/16 10:24:25;;;;;;;0.10;0.00;;;24.70;99.90;;;;;;5046056;28;20448;-80
2023/08/16 10:26:51;;;;;;;0.10;0.00;;;25.30;99.90;;;;;;5043888;28;20453;-79
2023/08/16 10:29:22;;;;;;;0.10;0.00;;;25.10;99.90;;;;;;5051753;28;20453;-79
2023/08/16 10:31:51;;;;;;;0.10;0.00;;;25.30;99.90;;;;;;5040816;28;20843;-82
2023/08/16 10:34:18;;;;;;;0.10;0.00;;;25.40;99.90;;;;;;5042718;28;20448;-78
2023/08/16 10:36:45;;;;;;;0.10;0.00;;;24.60;99.90;;;;;;5044686;28;20441;-78
2023/08/16 10:39:21;;;;;;;0.10;0.00;;;25.30;99.90;;;;;;5037875;28;20485;-79
2023/08/16 10:41:46;;;;;;;0.10;0.00;;;25.50;99.90;;;;;;5043518;28;20437;-79
2023/08/16 10:44:21;;;;;;;0.10;0.00;;;25.80;99.90;;;;;;5043405;28;20449;-81
2023/08/16 10:46:48;;;;;;;0.10;0.00;;;25.40;99.90;;;;;;5042669;28;20182;-78
2023/08/16 10:49:14;;;;;;;0.10;0.00;;;26.00;99.90;;;;;;5048880;28;20464;-80
2023/08/16 10:51:48;;;;;;;0.10;0.00;;;26.70;99.90;;;;;;5047705;28;20453;-78
2023/08/16 10:54:13;;;;;;;0.10;0.00;;;27.10;99.90;;;;;;5049229;28;20171;-79
2023/08/16 10:56:47;;;;;;;0.10;0.00;;;26.70;99.90;;;;;;5050378;28;20461;-80
2023/08/16 10:59:14;;;;;;;0.10;0.00;;;27.50;99.90;;;;;;5066962;28;20255;-81
2023/08/16 11:01:47;;;;;;;0.10;0.00;;;27.10;99.90;;;;;;5045795;28;20448;-79
2023/08/16 11:04:13;;;;;;;0.10;0.00;;;27.10;99.90;;;;;;5046106;28;20523;-79
2023/08/16 11:06:40;;;;;;;0.10;0.00;;;27.40;99.90;;;;;;5043341;28;20449;-78
2023/08/16 11:09:06;;;;;;;0.10;0.00;;;26.80;99.90;;;;;;5049230;28;20972;-77
2023/08/16 11:11:36;;;;;;;0.10;0.00;;;26.90;99.90;;;;;;5051386;28;20437;-76
2023/08/16 11:14:01;;;;;;;0.10;0.00;;;26.40;99.90;;;;;;5048486;28;20452;-79
2023/08/16 11:16:28;;;;;;;0.10;0.00;;;25.80;99.90;;;;;;5046144;28;20471;-80
2023/08/16 11:18:53;;;;;;;0.10;0.00;;;25.50;99.90;;;;;;5053599;28;20252;-80
2023/08/16 11:21:20;;;;;;;0.10;0.00;;;25.60;99.90;;;;;;5069462;28;20525;-79
2023/08/16 11:23:46;;;;;;;0.10;0.00;;;24.40;99.90;;;;;;5055546;28;20186;-81
2023/08/16 11:26:12;;;;;;;0.10;0.00;;;24.50;99.90;;;;;;5046775;28;20446;-81
2023/08/16 11:28:39;;;;;;;0.10;0.00;;;24.40;99.90;;;;;;5051301;28;20198;-81
2023/08/16 11:31:07;;;;;;;0.10;0.00;;;23.90;99.90;;;;;;5046356;28;20230;-81
2023/08/16 11:33:36;;;;;;;0.10;0.00;;;24.60;99.90;;;;;;5048158;28;20471;-80
2023/08/16 11:36:04;;;;;;;0.10;0.00;;;24.30;99.90;;;;;;5033791;28;20440;-81
2023/08/16 11:38:30;;;;;;;0.10;0.00;;;24.80;99.90;;;;;;5033841;28;20515;-81
2023/08/16 11:40:56;;;;;;;0.10;0.00;;;24.60;99.90;;;;;;5049312;28;20490;-78
2023/08/16 11:43:29;;;;;;;0.10;0.00;;;24.30;99.90;;;;;;5047406;28;21152;-78
2023/08/16 11:45:55;;;;;;;0.10;0.00;;;24.50;99.90;;;;;;5050757;28;20445;-79
2023/08/16 11:48:24;;;;;;;0.10;0.00;;;24.10;99.90;;;;;;5053575;28;20468;-81
2023/08/16 11:50:49;;;;;;;0.10;0.00;;;23.70;99.90;;;;;;5036573;28;20449;-80
2023/08/16 11:53:19;;;;;;;0.10;0.00;;;23.50;99.90;;;;;;5039287;28;20555;-81
2023/08/16 11:55:57;;;;;;;0.10;0.00;;;25.20;99.90;;;;;;5051665;28;20221;-80
2023/08/16 11:58:23;;;;;;;0.10;0.00;;;26.30;99.90;;;;;;5033294;28;20531;-79
2023/08/16 12:00:49;;;;;;;0.10;0.00;;;26.70;99.90;;;;;;5053880;28;21225;-79
2023/08/16 12:03:17;;;;;;;0.10;0.00;;;26.10;99.90;;;;;;5045204;28;20456;-79
2023/08/16 12:05:46;;;;;;;0.10;0.00;;;26.50;99.90;;;;;;5050435;28;20190;-80
2023/08/16 12:08:13;;;;;;;0.10;0.00;;;27.90;99.90;;;;;;5050352;28;20461;-79
2023/08/16 12:10:39;;;;;;;0.10;0.00;;;27.70;99.90;;;;;;5051393;28;20451;-79
2023/08/16 12:13:13;;;;;;;0.10;0.00;;;27.70;99.90;;;;;;5046855;28;20873;-79
2023/08/16 12:15:40;;;;;;;0.10;0.00;;;28.20;99.90;;;;;;5051982;28;20452;-79
2023/08/16 12:18:05;;;;;;;0.10;0.00;;;28.40;99.90;;;;;;5050209;28;20471;-76
2023/08/16 12:20:31;;;;;;;0.10;0.00;;;29.10;99.90;;;;;;5049753;28;20488;-76
2023/08/16 12:22:58;;;;;;;0.10;0.00;;;28.40;99.90;;;;;;5048860;28;20217;-77
2023/08/16 12:25:24;;;;;;;0.10;0.00;;;28.10;99.90;;;;;;5052536;28;20190;-76
2023/08/16 12:27:49;;;;;;;0.10;0.00;;;28.70;99.90;;;;;;5049999;28;20449;-76
2023/08/16 12:30:15;;;;;;;0.10;0.00;;;29.50;99.90;;;;;;5048098;28;20242;-76
2023/08/16 12:32:41;;;;;;;0.10;0.00;;;29.90;99.90;;;;;;5050471;28;20198;-79
2023/08/16 12:35:07;;;;;;;0.10;0.00;;;27.30;99.90;;;;;;5050472;28;20642;-79
2023/08/16 12:37:33;;;;;;;0.10;0.00;;;26.80;99.90;;;;;;5050683;28;20202;-79
2023/08/16 12:39:58;;;;;;;0.10;0.00;;;27.90;99.90;;;;;;5051901;28;20502;-78
2023/08/16 12:42:24;;;;;;;0.10;0.00;;;27.60;99.90;;;;;;5050512;28;20191;-79
2023/08/16 12:44:49;;;;;;;0.10;0.00;;;27.00;99.90;;;;;;5034401;28;20194;-79